sensor_id;sensor_type;location;lat;lon;timestamp;P1;P2;P0
76483;PMS5003;65318;-33.924;18.406;2023-01-08T00:02:10;5;5;
76483;PMS5003;65318;-33.924;18.406;2023-01-08T00:04:36;6;5;
76483;PMS5003;65318;-33.924;18.406;2023-01-08T00:07:01;4;4;
76483;PMS5003;65318;-33.924;18.406;2023-01-08T00:09:27;8;8;
76483;PMS5003;65318;-33.924;18.406;2023-01-08T00:11:52;4;3;
76483;PMS5003;65318;-33.924;18.406;2023-01-08T00:14:17;5;4;
76483;PMS5003;65318;-33.924;18.406;2023-01-08T00:16:43;7;7;
76483;PMS5003;65318;-33.924;18.406;2023-01-08T00:19:09;5;5;
76483;PMS5003;65318;-33.924;18.406;2023-01-08T00:21:34;6;6;
76483;PMS5003;65318;-33.924;18.406;2023-01-08T00:24:00;4;4;
76483;PMS5003;65318;-33.924;18.406;2023-01-08T00:26:25;6;5;
76483;PMS5003;65318;-33.924;18.406;2023-01-08T00:28:50;6;5;
76483;PMS5003;65318;-33.924;18.406;2023-01-08T00:31:16;4;4;
76483;PMS5003;65318;-33.924;18.406;2023-01-08T00:33:41;8;7;
76483;PMS5003;65318;-33.924;18.406;2023-01-08T00:36:07;8;7;
76483;PMS5003;65318;-33.924;18.406;2023-01-08T00:38:32;6;5;
76483;PMS5003;65318;-33.924;18.406;2023-01-08T00:40:58;7;7;
76483;PMS5003;65318;-33.924;18.406;2023-01-08T00:43:23;8;8;
76483;PMS5003;65318;-33.924;18.406;2023-01-08T00:45:49;10;9;
76483;PMS5003;65318;-33.924;18.406;2023-01-08T00:48:14;11;9;
76483;PMS5003;65318;-33.924;18.406;2023-01-08T00:50:40;9;8;
76483;PMS5003;65318;-33.924;18.406;2023-01-08T00:53:05;9;8;
76483;PMS5003;65318;-33.924;18.406;2023-01-08T00:55:31;9;7;
76483;PMS5003;65318;-33.924;18.406;2023-01-08T00:57:57;10;10;
76483;PMS5003;65318;-33.924;18.406;2023-01-08T01:00:22;11;10;
76483;PMS5003;65318;-33.924;18.406;2023-01-08T01:02:47;8;8;
76483;PMS5003;65318;-33.924;18.406;2023-01-08T01:05:13;9;9;
76483;PMS5003;65318;-33.924;18.406;2023-01-08T01:07:38;9;8;
76483;PMS5003;65318;-33.924;18.406;2023-01-08T01:10:04;10;10;
76483;PMS5003;65318;-33.924;18.406;2023-01-08T01:12:29;6;6;
76483;PMS5003;65318;-33.924;18.406;2023-01-08T01:14:55;9;9;
76483;PMS5003;65318;-33.924;18.406;2023-01-08T01:17:20;13;12;
76483;PMS5003;65318;-33.924;18.406;2023-01-08T01:19:46;10;9;
76483;PMS5003;65318;-33.924;18.406;2023-01-08T01:22:11;12;11;
76483;PMS5003;65318;-33.924;18.406;2023-01-08T01:24:37;11;10;
76483;PMS5003;65318;-33.924;18.406;2023-01-08T01:27:02;12;12;
76483;PMS5003;65318;-33.924;18.406;2023-01-08T01:29:27;10;10;
76483;PMS5003;65318;-33.924;18.406;2023-01-08T01:31:53;10;9;
76483;PMS5003;65318;-33.924;18.406;2023-01-08T01:34:19;16;14;
76483;PMS5003;65318;-33.924;18.406;2023-01-08T01:36:44;14;11;
76483;PMS5003;65318;-33.924;18.406;2023-01-08T01:39:10;12;10;
76483;PMS5003;65318;-33.924;18.406;2023-01-08T01:41:36;10;10;
76483;PMS5003;65318;-33.924;18.406;2023-01-08T01:46:30;14;12;
76483;PMS5003;65318;-33.924;18.406;2023-01-08T01:48:52;10;10;
76483;PMS5003;65318;-33.924;18.406;2023-01-08T01:51:17;11;10;
76483;PMS5003;65318;-33.924;18.406;2023-01-08T01:53:43;11;10;
76483;PMS5003;65318;-33.924;18.406;2023-01-08T01:56:08;11;11;
76483;PMS5003;65318;-33.924;18.406;2023-01-08T01:58:34;8;7;
76483;PMS5003;65318;-33.924;18.406;2023-01-08T02:01:00;9;9;
76483;PMS5003;65318;-33.924;18.406;2023-01-08T02:03:25;7;7;
76483;PMS5003;65318;-33.924;18.406;2023-01-08T02:05:52;6;6;
76483;PMS5003;65318;-33.924;18.406;2023-01-08T02:08:16;9;9;
76483;PMS5003;65318;-33.924;18.406;2023-01-08T02:10:43;7;7;
76483;PMS5003;65318;-33.924;18.406;2023-01-08T02:13:08;11;10;
76483;PMS5003;65318;-33.924;18.406;2023-01-08T02:15:33;11;10;
76483;PMS5003;65318;-33.924;18.406;2023-01-08T02:18:00;8;8;
76483;PMS5003;65318;-33.924;18.406;2023-01-08T02:20:25;9;9;
76483;PMS5003;65318;-33.924;18.406;2023-01-08T02:22:53;12;12;
76483;PMS5003;65318;-33.924;18.406;2023-01-08T02:25:16;9;9;
76483;PMS5003;65318;-33.924;18.406;2023-01-08T02:27:40;12;10;
76483;PMS5003;65318;-33.924;18.406;2023-01-08T02:30:06;8;7;
76483;PMS5003;65318;-33.924;18.406;2023-01-08T02:32:32;10;9;
76483;PMS5003;65318;-33.924;18.406;2023-01-08T02:34:56;12;10;
76483;PMS5003;65318;-33.924;18.406;2023-01-08T02:37:22;13;12;
76483;PMS5003;65318;-33.924;18.406;2023-01-08T02:39:52;17;14;
76483;PMS5003;65318;-33.924;18.406;2023-01-08T02:42:15;15;15;
76483;PMS5003;65318;-33.924;18.406;2023-01-08T02:44:46;18;16;
76483;PMS5003;65318;-33.924;18.406;2023-01-08T02:47:04;14;13;
76483;PMS5003;65318;-33.924;18.406;2023-01-08T02:49:30;18;17;
76483;PMS5003;65318;-33.924;18.406;2023-01-08T02:51:55;15;13;
76483;PMS5003;65318;-33.924;18.406;2023-01-08T02:54:22;16;15;
76483;PMS5003;65318;-33.924;18.406;2023-01-08T02:56:48;16;16;
76483;PMS5003;65318;-33.924;18.406;2023-01-08T02:59:13;22;18;
76483;PMS5003;65318;-33.924;18.406;2023-01-08T03:01:38;16;15;
76483;PMS5003;65318;-33.924;18.406;2023-01-08T03:04:05;15;15;
76483;PMS5003;65318;-33.924;18.406;2023-01-08T03:06:29;17;16;
76483;PMS5003;65318;-33.924;18.406;2023-01-08T03:08:54;18;17;
76483;PMS5003;65318;-33.924;18.406;2023-01-08T03:11:21;16;16;
76483;PMS5003;65318;-33.924;18.406;2023-01-08T03:13:47;15;13;
76483;PMS5003;65318;-33.924;18.406;2023-01-08T03:16:13;15;15;
76483;PMS5003;65318;-33.924;18.406;2023-01-08T03:18:38;18;16;
76483;PMS5003;65318;-33.924;18.406;2023-01-08T03:21:02;17;16;
76483;PMS5003;65318;-33.924;18.406;2023-01-08T03:23:27;17;16;
76483;PMS5003;65318;-33.924;18.406;2023-01-08T03:25:53;15;15;
76483;PMS5003;65318;-33.924;18.406;2023-01-08T03:28:19;17;14;
76483;PMS5003;65318;-33.924;18.406;2023-01-08T03:30:43;15;14;
76483;PMS5003;65318;-33.924;18.406;2023-01-08T03:33:09;17;15;
76483;PMS5003;65318;-33.924;18.406;2023-01-08T03:35:35;12;12;
76483;PMS5003;65318;-33.924;18.406;2023-01-08T03:38:02;18;15;
76483;PMS5003;65318;-33.924;18.406;2023-01-08T03:40:27;12;12;
76483;PMS5003;65318;-33.924;18.406;2023-01-08T03:42:51;19;16;
76483;PMS5003;65318;-33.924;18.406;2023-01-08T03:45:16;15;15;
76483;PMS5003;65318;-33.924;18.406;2023-01-08T03:47:42;17;16;
76483;PMS5003;65318;-33.924;18.406;2023-01-08T03:50:08;15;14;
76483;PMS5003;65318;-33.924;18.406;2023-01-08T03:52:33;14;14;
76483;PMS5003;65318;-33.924;18.406;2023-01-08T03:54:58;16;14;
76483;PMS5003;65318;-33.924;18.406;2023-01-08T03:57:23;17;17;
76483;PMS5003;65318;-33.924;18.406;2023-01-08T03:59:49;18;17;
76483;PMS5003;65318;-33.924;18.406;2023-01-08T04:02:14;15;14;
76483;PMS5003;65318;-33.924;18.406;2023-01-08T04:04:40;18;15;
76483;PMS5003;65318;-33.924;18.406;2023-01-08T04:07:05;15;13;
76483;PMS5003;65318;-33.924;18.406;2023-01-08T04:09:31;17;15;
76483;PMS5003;65318;-33.924;18.406;2023-01-08T04:11:56;14;14;
76483;PMS5003;65318;-33.924;18.406;2023-01-08T04:14:22;13;13;
76483;PMS5003;65318;-33.924;18.406;2023-01-08T04:16:47;17;16;
76483;PMS5003;65318;-33.924;18.406;2023-01-08T04:19:13;12;12;
76483;PMS5003;65318;-33.924;18.406;2023-01-08T04:21:38;16;16;
76483;PMS5003;65318;-33.924;18.406;2023-01-08T04:24:04;18;16;
76483;PMS5003;65318;-33.924;18.406;2023-01-08T04:26:29;15;14;
76483;PMS5003;65318;-33.924;18.406;2023-01-08T04:28:54;14;13;
76483;PMS5003;65318;-33.924;18.406;2023-01-08T04:31:20;14;14;
76483;PMS5003;65318;-33.924;18.406;2023-01-08T04:33:45;15;13;
76483;PMS5003;65318;-33.924;18.406;2023-01-08T04:36:11;15;14;
76483;PMS5003;65318;-33.924;18.406;2023-01-08T04:38:36;14;14;
76483;PMS5003;65318;-33.924;18.406;2023-01-08T04:41:01;17;14;
76483;PMS5003;65318;-33.924;18.406;2023-01-08T04:43:27;16;15;
76483;PMS5003;65318;-33.924;18.406;2023-01-08T04:45:56;14;12;
76483;PMS5003;65318;-33.924;18.406;2023-01-08T04:48:18;13;13;
76483;PMS5003;65318;-33.924;18.406;2023-01-08T04:50:43;13;13;
76483;PMS5003;65318;-33.924;18.406;2023-01-08T04:53:09;12;12;
76483;PMS5003;65318;-33.924;18.406;2023-01-08T04:55:35;13;12;
76483;PMS5003;65318;-33.924;18.406;2023-01-08T04:58:00;14;14;
76483;PMS5003;65318;-33.924;18.406;2023-01-08T05:00:26;14;14;
76483;PMS5003;65318;-33.924;18.406;2023-01-08T05:02:51;16;15;
76483;PMS5003;65318;-33.924;18.406;2023-01-08T05:05:16;15;15;
76483;PMS5003;65318;-33.924;18.406;2023-01-08T05:07:42;13;12;
76483;PMS5003;65318;-33.924;18.406;2023-01-08T05:10:07;15;13;
76483;PMS5003;65318;-33.924;18.406;2023-01-08T05:12:32;17;14;
76483;PMS5003;65318;-33.924;18.406;2023-01-08T05:14:58;14;14;
76483;PMS5003;65318;-33.924;18.406;2023-01-08T05:17:23;14;14;
76483;PMS5003;65318;-33.924;18.406;2023-01-08T05:19:49;13;12;
76483;PMS5003;65318;-33.924;18.406;2023-01-08T05:22:14;14;13;
76483;PMS5003;65318;-33.924;18.406;2023-01-08T05:24:41;16;14;
76483;PMS5003;65318;-33.924;18.406;2023-01-08T05:27:05;17;14;
76483;PMS5003;65318;-33.924;18.406;2023-01-08T05:29:31;15;13;
76483;PMS5003;65318;-33.924;18.406;2023-01-08T05:31:56;16;15;
76483;PMS5003;65318;-33.924;18.406;2023-01-08T05:34:21;14;13;
76483;PMS5003;65318;-33.924;18.406;2023-01-08T05:36:47;14;13;
76483;PMS5003;65318;-33.924;18.406;2023-01-08T05:39:12;15;12;
76483;PMS5003;65318;-33.924;18.406;2023-01-08T05:41:38;13;13;
76483;PMS5003;65318;-33.924;18.406;2023-01-08T05:44:03;16;14;
76483;PMS5003;65318;-33.924;18.406;2023-01-08T05:46:28;15;13;
76483;PMS5003;65318;-33.924;18.406;2023-01-08T05:48:54;14;13;
76483;PMS5003;65318;-33.924;18.406;2023-01-08T05:51:20;14;12;
76483;PMS5003;65318;-33.924;18.406;2023-01-08T05:53:45;12;10;
76483;PMS5003;65318;-33.924;18.406;2023-01-08T05:56:11;10;10;
76483;PMS5003;65318;-33.924;18.406;2023-01-08T05:58:37;12;11;
76483;PMS5003;65318;-33.924;18.406;2023-01-08T06:01:03;9;9;
76483;PMS5003;65318;-33.924;18.406;2023-01-08T06:03:27;10;10;
76483;PMS5003;65318;-33.924;18.406;2023-01-08T06:05:56;11;10;
76483;PMS5003;65318;-33.924;18.406;2023-01-08T06:08:18;12;12;
76483;PMS5003;65318;-33.924;18.406;2023-01-08T06:10:44;13;11;
76483;PMS5003;65318;-33.924;18.406;2023-01-08T06:13:09;9;9;
76483;PMS5003;65318;-33.924;18.406;2023-01-08T06:15:36;14;12;
76483;PMS5003;65318;-33.924;18.406;2023-01-08T06:18:01;14;13;
76483;PMS5003;65318;-33.924;18.406;2023-01-08T06:20:26;12;12;
76483;PMS5003;65318;-33.924;18.406;2023-01-08T06:22:52;12;11;
76483;PMS5003;65318;-33.924;18.406;2023-01-08T06:25:16;11;10;
76483;PMS5003;65318;-33.924;18.406;2023-01-08T06:27:42;15;12;
76483;PMS5003;65318;-33.924;18.406;2023-01-08T06:30:08;14;14;
76483;PMS5003;65318;-33.924;18.406;2023-01-08T06:32:33;15;15;
76483;PMS5003;65318;-33.924;18.406;2023-01-08T06:34:59;13;12;
76483;PMS5003;65318;-33.924;18.406;2023-01-08T06:37:25;15;14;
76483;PMS5003;65318;-33.924;18.406;2023-01-08T06:39:50;12;12;
76483;PMS5003;65318;-33.924;18.406;2023-01-08T06:42:16;17;16;
76483;PMS5003;65318;-33.924;18.406;2023-01-08T06:44:41;16;15;
76483;PMS5003;65318;-33.924;18.406;2023-01-08T06:47:06;17;16;
76483;PMS5003;65318;-33.924;18.406;2023-01-08T06:49:32;15;15;
76483;PMS5003;65318;-33.924;18.406;2023-01-08T06:51:57;16;15;
76483;PMS5003;65318;-33.924;18.406;2023-01-08T06:54:23;18;16;
76483;PMS5003;65318;-33.924;18.406;2023-01-08T06:56:49;19;18;
76483;PMS5003;65318;-33.924;18.406;2023-01-08T06:59:14;20;20;
76483;PMS5003;65318;-33.924;18.406;2023-01-08T07:01:40;21;21;
76483;PMS5003;65318;-33.924;18.406;2023-01-08T07:04:05;19;18;
76483;PMS5003;65318;-33.924;18.406;2023-01-08T07:06:31;18;17;
76483;PMS5003;65318;-33.924;18.406;2023-01-08T07:08:57;23;20;
76483;PMS5003;65318;-33.924;18.406;2023-01-08T07:11:22;20;19;
76483;PMS5003;65318;-33.924;18.406;2023-01-08T07:13:47;19;18;
76483;PMS5003;65318;-33.924;18.406;2023-01-08T07:16:13;23;21;
76483;PMS5003;65318;-33.924;18.406;2023-01-08T07:18:39;18;17;
76483;PMS5003;65318;-33.924;18.406;2023-01-08T07:21:04;20;16;
76483;PMS5003;65318;-33.924;18.406;2023-01-08T07:23:29;18;17;
76483;PMS5003;65318;-33.924;18.406;2023-01-08T07:25:55;12;12;
76483;PMS5003;65318;-33.924;18.406;2023-01-08T07:28:20;10;10;
76483;PMS5003;65318;-33.924;18.406;2023-01-08T07:30:45;9;9;
76483;PMS5003;65318;-33.924;18.406;2023-01-08T07:33:11;8;7;
76483;PMS5003;65318;-33.924;18.406;2023-01-08T07:35:36;5;5;
76483;PMS5003;65318;-33.924;18.406;2023-01-08T07:38:02;5;5;
76483;PMS5003;65318;-33.924;18.406;2023-01-08T07:40:27;7;7;
76483;PMS5003;65318;-33.924;18.406;2023-01-08T07:42:56;6;6;
76483;PMS5003;65318;-33.924;18.406;2023-01-08T07:45:18;6;5;
76483;PMS5003;65318;-33.924;18.406;2023-01-08T07:47:44;5;5;
76483;PMS5003;65318;-33.924;18.406;2023-01-08T07:50:09;7;4;
76483;PMS5003;65318;-33.924;18.406;2023-01-08T07:52:35;4;4;
76483;PMS5003;65318;-33.924;18.406;2023-01-08T07:55:00;4;4;
76483;PMS5003;65318;-33.924;18.406;2023-01-08T07:57:27;4;4;
76483;PMS5003;65318;-33.924;18.406;2023-01-08T07:59:51;2;2;
76483;PMS5003;65318;-33.924;18.406;2023-01-08T08:02:17;3;3;
76483;PMS5003;65318;-33.924;18.406;2023-01-08T08:04:42;3;2;
76483;PMS5003;65318;-33.924;18.406;2023-01-08T08:07:08;4;4;
76483;PMS5003;65318;-33.924;18.406;2023-01-08T08:09:33;3;3;
76483;PMS5003;65318;-33.924;18.406;2023-01-08T08:11:59;2;2;
76483;PMS5003;65318;-33.924;18.406;2023-01-08T08:14:24;5;4;
76483;PMS5003;65318;-33.924;18.406;2023-01-08T08:16:50;4;4;
76483;PMS5003;65318;-33.924;18.406;2023-01-08T08:19:15;7;7;
76483;PMS5003;65318;-33.924;18.406;2023-01-08T08:21:40;6;6;
76483;PMS5003;65318;-33.924;18.406;2023-01-08T08:24:06;5;5;
76483;PMS5003;65318;-33.924;18.406;2023-01-08T08:26:32;7;7;
76483;PMS5003;65318;-33.924;18.406;2023-01-08T08:28:57;7;7;
76483;PMS5003;65318;-33.924;18.406;2023-01-08T08:31:22;9;9;
76483;PMS5003;65318;-33.924;18.406;2023-01-08T08:33:48;8;7;
76483;PMS5003;65318;-33.924;18.406;2023-01-08T08:36:13;10;8;
76483;PMS5003;65318;-33.924;18.406;2023-01-08T08:38:39;8;8;
76483;PMS5003;65318;-33.924;18.406;2023-01-08T08:41:04;9;8;
76483;PMS5003;65318;-33.924;18.406;2023-01-08T08:43:30;8;8;
76483;PMS5003;65318;-33.924;18.406;2023-01-08T08:45:55;6;6;
76483;PMS5003;65318;-33.924;18.406;2023-01-08T08:48:21;9;8;
76483;PMS5003;65318;-33.924;18.406;2023-01-08T08:50:47;11;9;
76483;PMS5003;65318;-33.924;18.406;2023-01-08T08:53:12;12;10;
76483;PMS5003;65318;-33.924;18.406;2023-01-08T08:55:37;16;14;
76483;PMS5003;65318;-33.924;18.406;2023-01-08T08:58:03;12;11;
76483;PMS5003;65318;-33.924;18.406;2023-01-08T09:00:28;9;9;
76483;PMS5003;65318;-33.924;18.406;2023-01-08T09:02:54;11;10;
76483;PMS5003;65318;-33.924;18.406;2023-01-08T09:05:19;11;10;
76483;PMS5003;65318;-33.924;18.406;2023-01-08T09:07:45;10;10;
76483;PMS5003;65318;-33.924;18.406;2023-01-08T09:10:10;11;8;
76483;PMS5003;65318;-33.924;18.406;2023-01-08T09:12:36;8;8;
76483;PMS5003;65318;-33.924;18.406;2023-01-08T09:15:01;12;11;
76483;PMS5003;65318;-33.924;18.406;2023-01-08T09:17:26;11;11;
76483;PMS5003;65318;-33.924;18.406;2023-01-08T09:19:52;10;10;
76483;PMS5003;65318;-33.924;18.406;2023-01-08T09:22:17;10;8;
76483;PMS5003;65318;-33.924;18.406;2023-01-08T09:24:42;13;13;
76483;PMS5003;65318;-33.924;18.406;2023-01-08T09:27:08;8;7;
76483;PMS5003;65318;-33.924;18.406;2023-01-08T09:29:33;10;9;
76483;PMS5003;65318;-33.924;18.406;2023-01-08T09:31:59;11;11;
76483;PMS5003;65318;-33.924;18.406;2023-01-08T09:34:25;13;12;
76483;PMS5003;65318;-33.924;18.406;2023-01-08T09:36:50;11;10;
76483;PMS5003;65318;-33.924;18.406;2023-01-08T09:39:15;10;10;
76483;PMS5003;65318;-33.924;18.406;2023-01-08T09:41:42;11;9;
76483;PMS5003;65318;-33.924;18.406;2023-01-08T09:44:06;11;11;
76483;PMS5003;65318;-33.924;18.406;2023-01-08T09:46:32;9;8;
76483;PMS5003;65318;-33.924;18.406;2023-01-08T09:48:58;10;10;
76483;PMS5003;65318;-33.924;18.406;2023-01-08T09:51:23;10;9;
76483;PMS5003;65318;-33.924;18.406;2023-01-08T09:53:49;11;11;
76483;PMS5003;65318;-33.924;18.406;2023-01-08T09:56:15;9;9;
76483;PMS5003;65318;-33.924;18.406;2023-01-08T09:58:40;7;6;
76483;PMS5003;65318;-33.924;18.406;2023-01-08T10:01:05;9;9;
76483;PMS5003;65318;-33.924;18.406;2023-01-08T10:03:37;9;8;
76483;PMS5003;65318;-33.924;18.406;2023-01-08T10:05:56;10;8;
76483;PMS5003;65318;-33.924;18.406;2023-01-08T10:08:21;7;7;
76483;PMS5003;65318;-33.924;18.406;2023-01-08T10:10:47;10;10;
76483;PMS5003;65318;-33.924;18.406;2023-01-08T10:13:12;10;9;
76483;PMS5003;65318;-33.924;18.406;2023-01-08T10:15:38;10;10;
76483;PMS5003;65318;-33.924;18.406;2023-01-08T10:18:04;10;10;
76483;PMS5003;65318;-33.924;18.406;2023-01-08T10:20:29;11;10;
76483;PMS5003;65318;-33.924;18.406;2023-01-08T10:22:53;9;9;
76483;PMS5003;65318;-33.924;18.406;2023-01-08T10:25:20;9;9;
76483;PMS5003;65318;-33.924;18.406;2023-01-08T10:27:46;11;9;
76483;PMS5003;65318;-33.924;18.406;2023-01-08T10:30:13;8;8;
76483;PMS5003;65318;-33.924;18.406;2023-01-08T10:32:36;10;10;
76483;PMS5003;65318;-33.924;18.406;2023-01-08T10:35:02;7;7;
76483;PMS5003;65318;-33.924;18.406;2023-01-08T10:37:27;9;9;
76483;PMS5003;65318;-33.924;18.406;2023-01-08T10:39:53;9;9;
76483;PMS5003;65318;-33.924;18.406;2023-01-08T10:42:17;11;10;
76483;PMS5003;65318;-33.924;18.406;2023-01-08T10:44:46;7;7;
76483;PMS5003;65318;-33.924;18.406;2023-01-08T10:47:12;11;8;
76483;PMS5003;65318;-33.924;18.406;2023-01-08T10:49:35;7;7;
76483;PMS5003;65318;-33.924;18.406;2023-01-08T10:52:00;10;9;
76483;PMS5003;65318;-33.924;18.406;2023-01-08T10:54:28;7;6;
76483;PMS5003;65318;-33.924;18.406;2023-01-08T10:56:51;7;7;
76483;PMS5003;65318;-33.924;18.406;2023-01-08T10:59:17;7;7;
76483;PMS5003;65318;-33.924;18.406;2023-01-08T11:01:44;9;7;
76483;PMS5003;65318;-33.924;18.406;2023-01-08T11:06:33;9;8;
76483;PMS5003;65318;-33.924;18.406;2023-01-08T11:08:58;8;8;
76483;PMS5003;65318;-33.924;18.406;2023-01-08T11:11:23;11;10;
76483;PMS5003;65318;-33.924;18.406;2023-01-08T11:13:50;8;8;
76483;PMS5003;65318;-33.924;18.406;2023-01-08T11:16:14;6;5;
76483;PMS5003;65318;-33.924;18.406;2023-01-08T11:18:41;5;5;
76483;PMS5003;65318;-33.924;18.406;2023-01-08T11:21:06;5;5;
76483;PMS5003;65318;-33.924;18.406;2023-01-08T11:23:30;6;6;
76483;PMS5003;65318;-33.924;18.406;2023-01-08T11:25:59;7;6;
76483;PMS5003;65318;-33.924;18.406;2023-01-08T11:28:25;6;6;
76483;PMS5003;65318;-33.924;18.406;2023-01-08T11:30:49;4;3;
76483;PMS5003;65318;-33.924;18.406;2023-01-08T11:33:14;6;6;
76483;PMS5003;65318;-33.924;18.406;2023-01-08T11:35:40;4;4;
76483;PMS5003;65318;-33.924;18.406;2023-01-08T11:38:04;5;4;
76483;PMS5003;65318;-33.924;18.406;2023-01-08T11:40:31;7;5;
76483;PMS5003;65318;-33.924;18.406;2023-01-08T11:42:59;4;4;
76483;PMS5003;65318;-33.924;18.406;2023-01-08T11:45:23;5;5;
76483;PMS5003;65318;-33.924;18.406;2023-01-08T11:47:49;4;4;
76483;PMS5003;65318;-33.924;18.406;2023-01-08T11:50:13;5;5;
76483;PMS5003;65318;-33.924;18.406;2023-01-08T11:52:42;4;3;
76483;PMS5003;65318;-33.924;18.406;2023-01-08T11:57:30;3;3;
76483;PMS5003;65318;-33.924;18.406;2023-01-08T11:59:55;4;4;
76483;PMS5003;65318;-33.924;18.406;2023-01-08T12:02:19;5;3;
76483;PMS5003;65318;-33.924;18.406;2023-01-08T12:04:50;4;4;
76483;PMS5003;65318;-33.924;18.406;2023-01-08T12:07:11;3;3;
76483;PMS5003;65318;-33.924;18.406;2023-01-08T12:09:37;3;3;
76483;PMS5003;65318;-33.924;18.406;2023-01-08T12:12:02;5;4;
76483;PMS5003;65318;-33.924;18.406;2023-01-08T12:14:29;4;4;
76483;PMS5003;65318;-33.924;18.406;2023-01-08T12:16:56;3;3;
76483;PMS5003;65318;-33.924;18.406;2023-01-08T12:19:19;4;4;
76483;PMS5003;65318;-33.924;18.406;2023-01-08T12:21:44;4;4;
76483;PMS5003;65318;-33.924;18.406;2023-01-08T12:24:17;5;5;
76483;PMS5003;65318;-33.924;18.406;2023-01-08T12:26:35;3;3;
76483;PMS5003;65318;-33.924;18.406;2023-01-08T12:29:03;3;3;
76483;PMS5003;65318;-33.924;18.406;2023-01-08T12:31:29;4;4;
76483;PMS5003;65318;-33.924;18.406;2023-01-08T12:33:50;3;3;
76483;PMS5003;65318;-33.924;18.406;2023-01-08T12:36:17;4;3;
76483;PMS5003;65318;-33.924;18.406;2023-01-08T12:38:41;3;3;
76483;PMS5003;65318;-33.924;18.406;2023-01-08T12:41:07;4;4;
76483;PMS5003;65318;-33.924;18.406;2023-01-08T12:43:33;3;3;
76483;PMS5003;65318;-33.924;18.406;2023-01-08T12:45:58;4;4;
76483;PMS5003;65318;-33.924;18.406;2023-01-08T12:48:23;5;4;
76483;PMS5003;65318;-33.924;18.406;2023-01-08T12:50:51;6;6;
76483;PMS5003;65318;-33.924;18.406;2023-01-08T12:53:17;7;5;
76483;PMS5003;65318;-33.924;18.406;2023-01-08T12:55:42;5;4;
76483;PMS5003;65318;-33.924;18.406;2023-01-08T12:58:09;5;5;
76483;PMS5003;65318;-33.924;18.406;2023-01-08T13:00:32;5;5;
76483;PMS5003;65318;-33.924;18.406;2023-01-08T13:02:57;5;5;
76483;PMS5003;65318;-33.924;18.406;2023-01-08T13:05:29;5;4;
76483;PMS5003;65318;-33.924;18.406;2023-01-08T13:07:48;3;3;
76483;PMS5003;65318;-33.924;18.406;2023-01-08T13:10:19;4;4;
76483;PMS5003;65318;-33.924;18.406;2023-01-08T13:12:39;3;3;
76483;PMS5003;65318;-33.924;18.406;2023-01-08T13:15:04;2;2;
76483;PMS5003;65318;-33.924;18.406;2023-01-08T13:17:29;3;3;
76483;PMS5003;65318;-33.924;18.406;2023-01-08T13:19:57;1;1;
76483;PMS5003;65318;-33.924;18.406;2023-01-08T13:22:23;1;1;
76483;PMS5003;65318;-33.924;18.406;2023-01-08T13:24:46;1;0;
76483;PMS5003;65318;-33.924;18.406;2023-01-08T13:29:38;2;2;
76483;PMS5003;65318;-33.924;18.406;2023-01-08T13:32:02;2;1;
76483;PMS5003;65318;-33.924;18.406;2023-01-08T13:36:54;1;1;
76483;PMS5003;65318;-33.924;18.406;2023-01-08T13:39:20;2;1;
76483;PMS5003;65318;-33.924;18.406;2023-01-08T13:41:54;3;2;
76483;PMS5003;65318;-33.924;18.406;2023-01-08T13:44:14;2;2;
76483;PMS5003;65318;-33.924;18.406;2023-01-08T13:46:36;4;4;
76483;PMS5003;65318;-33.924;18.406;2023-01-08T13:49:01;2;2;
76483;PMS5003;65318;-33.924;18.406;2023-01-08T13:51:31;4;4;
76483;PMS5003;65318;-33.924;18.406;2023-01-08T13:53:52;3;3;
76483;PMS5003;65318;-33.924;18.406;2023-01-08T13:56:17;5;5;
76483;PMS5003;65318;-33.924;18.406;2023-01-08T13:58:43;4;4;
76483;PMS5003;65318;-33.924;18.406;2023-01-08T14:01:08;3;3;
76483;PMS5003;65318;-33.924;18.406;2023-01-08T14:03:34;5;5;
76483;PMS5003;65318;-33.924;18.406;2023-01-08T14:06:05;5;5;
76483;PMS5003;65318;-33.924;18.406;2023-01-08T14:08:25;4;4;
76483;PMS5003;65318;-33.924;18.406;2023-01-08T14:10:50;5;5;
76483;PMS5003;65318;-33.924;18.406;2023-01-08T14:13:16;3;3;
76483;PMS5003;65318;-33.924;18.406;2023-01-08T14:15:41;2;2;
76483;PMS5003;65318;-33.924;18.406;2023-01-08T14:18:09;4;4;
76483;PMS5003;65318;-33.924;18.406;2023-01-08T14:20:33;5;5;
76483;PMS5003;65318;-33.924;18.406;2023-01-08T14:22:58;4;4;
76483;PMS5003;65318;-33.924;18.406;2023-01-08T14:25:23;4;3;
76483;PMS5003;65318;-33.924;18.406;2023-01-08T14:27:55;2;2;
76483;PMS5003;65318;-33.924;18.406;2023-01-08T14:30:15;3;3;
76483;PMS5003;65318;-33.924;18.406;2023-01-08T14:32:41;1;1;
76483;PMS5003;65318;-33.924;18.406;2023-01-08T14:35:05;5;4;
76483;PMS5003;65318;-33.924;18.406;2023-01-08T14:37:31;7;4;
76483;PMS5003;65318;-33.924;18.406;2023-01-08T14:39:56;5;5;
76483;PMS5003;65318;-33.924;18.406;2023-01-08T14:42:22;5;4;
76483;PMS5003;65318;-33.924;18.406;2023-01-08T14:44:52;3;3;
76483;PMS5003;65318;-33.924;18.406;2023-01-08T14:47:14;3;3;
76483;PMS5003;65318;-33.924;18.406;2023-01-08T14:49:38;4;4;
76483;PMS5003;65318;-33.924;18.406;2023-01-08T14:52:04;6;5;
76483;PMS5003;65318;-33.924;18.406;2023-01-08T14:54:30;5;5;
76483;PMS5003;65318;-33.924;18.406;2023-01-08T14:56:55;6;5;
76483;PMS5003;65318;-33.924;18.406;2023-01-08T14:59:20;5;5;
76483;PMS5003;65318;-33.924;18.406;2023-01-08T15:01:49;5;5;
76483;PMS5003;65318;-33.924;18.406;2023-01-08T15:04:13;4;4;
76483;PMS5003;65318;-33.924;18.406;2023-01-08T15:06:37;3;3;
76483;PMS5003;65318;-33.924;18.406;2023-01-08T15:09:12;6;6;
76483;PMS5003;65318;-33.924;18.406;2023-01-08T15:11:29;4;4;
76483;PMS5003;65318;-33.924;18.406;2023-01-08T15:13:53;5;5;
76483;PMS5003;65318;-33.924;18.406;2023-01-08T15:16:20;4;4;
76483;PMS5003;65318;-33.924;18.406;2023-01-08T15:18:45;6;5;
76483;PMS5003;65318;-33.924;18.406;2023-01-08T15:21:09;6;6;
76483;PMS5003;65318;-33.924;18.406;2023-01-08T15:23:38;4;4;
76483;PMS5003;65318;-33.924;18.406;2023-01-08T15:26:00;7;6;
76483;PMS5003;65318;-33.924;18.406;2023-01-08T15:28:26;6;6;
76483;PMS5003;65318;-33.924;18.406;2023-01-08T15:30:52;4;4;
76483;PMS5003;65318;-33.924;18.406;2023-01-08T15:33:18;6;6;
76483;PMS5003;65318;-33.924;18.406;2023-01-08T15:35:43;6;5;
76483;PMS5003;65318;-33.924;18.406;2023-01-08T15:38:08;4;4;
76483;PMS5003;65318;-33.924;18.406;2023-01-08T15:40:34;6;5;
76483;PMS5003;65318;-33.924;18.406;2023-01-08T15:42:59;6;5;
76483;PMS5003;65318;-33.924;18.406;2023-01-08T15:45:25;5;4;
76483;PMS5003;65318;-33.924;18.406;2023-01-08T15:47:50;6;5;
76483;PMS5003;65318;-33.924;18.406;2023-01-08T15:50:16;6;6;
76483;PMS5003;65318;-33.924;18.406;2023-01-08T15:52:41;7;7;
76483;PMS5003;65318;-33.924;18.406;2023-01-08T15:55:09;7;7;
76483;PMS5003;65318;-33.924;18.406;2023-01-08T15:57:32;6;6;
76483;PMS5003;65318;-33.924;18.406;2023-01-08T15:59:58;6;6;
76483;PMS5003;65318;-33.924;18.406;2023-01-08T16:02:23;8;8;
76483;PMS5003;65318;-33.924;18.406;2023-01-08T16:04:50;9;8;